Latest Weather Observations for Cleve Airport

IDS60801

Issued at 10:35 am CDT Thursday 27 November 2014 (issued every 30 minutes, with the page automatically refreshed every 10 minutes)

About weather observations | Map of weather stations | Latest weather observations for SA | Other Formats
Station Details ID: 018116 Name: CLEVE AERODROME Lat: -33.71 Lon: 136.50 Height: 175.0 m
Data from the previous 72 hours. | See also: Recent months at Cleve Airport
Date/Time
CDT
Temp
°C
App
Temp
°C
Dew
Point
Rel
Hum
%
Delta-T
°C
Wind Press
QNH
hPa
Press
MSL
hPa
Rain
since 9 am
mm
Dir
 
Spd
km/h
Gust
km/h
Spd
kts
Gust
kts
27/10:30am 21.2 17.0 11.0 52 5.6 ESE 24 32 13 17 1022.3 - 0.0
27/10:00am 20.2 15.9 10.9 55 5.1 ESE 24 32 13 17 1022.6 - 0.0
27/09:30am 19.7 15.4 10.9 57 4.8 E 24 33 13 18 1022.8 - 0.0
27/09:00am 19.2 14.5 10.7 58 4.6 E 26 35 14 19 1022.9 1022.5 0.0
27/08:30am 18.5 13.9 11.1 62 4.0 E 26 32 14 17 1022.9 - 0.0
27/08:00am 17.0 12.2 11.5 70 3.0 E 28 33 15 18 1022.7 - 0.0
27/07:30am 16.1 12.1 11.9 76 2.3 E 24 33 13 18 1022.6 - 0.0
27/07:00am 15.1 11.6 12.1 82 1.6 E 22 28 12 15 1022.4 - 0.0
27/06:30am 14.6 11.6 12.1 85 1.4 E 19 24 10 13 1022.2 - 0.0
27/06:00am 14.7 11.5 12.0 84 1.5 E 20 26 11 14 1022.0 1021.6 0.0
27/05:30am 14.5 11.3 11.8 84 1.5 E 20 28 11 15 1021.9 - 0.0
27/05:00am 14.4 11.1 11.7 84 1.5 ESE 20 28 11 15 1021.7 - 0.0
27/04:30am 14.5 10.8 11.5 82 1.6 ESE 22 28 12 15 1021.6 - 0.0
27/04:00am 14.7 11.4 11.5 81 1.7 ESE 20 28 11 15 1021.6 - 0.0
27/03:30am 14.7 11.1 11.7 82 1.6 E 22 32 12 17 1021.6 - 0.0
27/03:00am 14.7 11.1 11.7 82 1.6 ESE 22 30 12 16 1021.6 1021.2 0.0
27/02:30am 14.5 11.2 11.5 82 1.6 ESE 20 26 11 14 1021.9 - 0.0
27/02:00am 14.1 11.3 11.3 83 1.5 E 17 22 9 12 1022.3 - 0.0
27/01:30am 13.9 10.7 11.1 83 1.5 ESE 19 24 10 13 1022.5 - 0.0
27/01:00am 14.1 10.7 11.1 82 1.6 ESE 20 24 11 13 1022.7 - 0.0
27/12:30am 14.3 10.4 10.9 80 1.8 ESE 22 28 12 15 1023.1 - 0.0
27/12:00am 14.2 10.6 10.6 79 1.9 ESE 20 24 11 13 1023.5 1023.1 0.0
 
Date/Time
CDT
Temp
°C
App
Temp
°C
Dew
Point
Rel
Hum
%
Delta-T
°C
Wind Press
QNH
hPa
Press
MSL
hPa
Rain
since 9 am
mm
Dir
 
Spd
km/h
Gust
km/h
Spd
kts
Gust
kts
26/11:30pm 14.9 10.2 10.7 76 2.2 SE 26 32 14 17 1023.6 - 0.0
26/11:00pm 14.8 11.0 11.2 79 1.9 SE 22 30 12 16 1023.5 - 0.0
26/10:30pm 15.1 11.3 11.1 77 2.1 SE 22 32 12 17 1023.2 - 0.0
26/10:00pm 15.0 11.8 12.0 82 1.6 SE 20 26 11 14 1023.0 - 0.0
26/09:30pm 14.9 11.6 11.7 81 1.7 SE 20 28 11 15 1022.8 - 0.0
26/09:00pm 15.2 11.6 11.8 80 1.8 SSE 22 28 12 15 1022.5 1022.1 0.0
26/08:30pm 15.6 12.1 11.0 74 2.5 SE 20 28 11 15 1022.4 - 0.0
26/08:00pm 16.2 11.0 10.1 67 3.2 SSE 28 35 15 19 1022.3 - 0.0
26/07:30pm 16.8 12.0 10.2 65 3.5 SSE 26 33 14 18 1022.2 - 0.0
26/07:00pm 17.2 11.8 9.4 60 4.1 SSE 28 35 15 19 1022.1 - 0.0
26/06:30pm 17.7 12.2 9.3 58 4.4 SSE 28 39 15 21 1022.0 - 0.0
26/06:00pm 18.3 12.8 9.1 55 4.8 SE 28 37 15 20 1021.8 1021.4 0.0
26/05:30pm 18.8 13.7 9.3 54 5.0 SE 26 37 14 20 1021.8 - 0.0
26/05:00pm 19.4 13.3 8.4 49 5.8 SE 30 41 16 22 1021.7 - 0.0
26/04:30pm 19.3 13.9 8.0 48 5.9 SE 26 37 14 20 1021.7 - 0.0
26/04:00pm 19.4 14.0 7.8 47 6.0 SE 26 43 14 23 1021.8 - 0.0
26/03:30pm 19.1 14.3 7.5 47 6.0 SE 22 33 12 18 1022.1 - 0.0
26/03:00pm 19.2 14.9 7.0 45 6.2 SE 19 32 10 17 1022.2 1021.8 0.0
26/02:30pm 19.7 14.8 7.1 44 6.4 ESE 22 48 12 26 1022.3 - 0.0
26/02:00pm 20.5 16.1 7.5 43 6.7 ESE 20 33 11 18 1022.5 - 0.0
26/01:30pm 19.6 13.7 7.7 46 6.2 ESE 28 35 15 19 1022.8 - 0.0
26/01:00pm 19.0 14.5 6.8 45 6.2 SE 20 35 11 19 1022.9 - 0.0
26/12:30pm 19.1 14.0 7.5 47 6.0 ESE 24 33 13 18 1023.1 - 0.0
26/12:00pm 18.7 12.8 7.5 48 5.7 ESE 28 41 15 22 1023.4 1023.0 0.0
26/11:30am 19.1 13.9 8.7 51 5.5 ESE 26 41 14 22 1023.4 - 0.0
26/11:00am 18.6 14.3 7.7 49 5.6 SE 20 32 11 17 1023.6 - 0.0
26/10:30am 17.9 13.5 7.6 51 5.3 ESE 20 32 11 17 1023.8 - 0.0
26/10:00am 17.1 12.0 7.7 54 4.8 SE 24 33 13 18 1024.0 - 0.0
26/09:30am 17.2 13.0 8.1 55 4.7 SE 20 28 11 15 1024.0 - 0.0
26/09:00am 16.4 12.3 8.6 60 4.0 SE 20 26 11 14 1023.8 1023.5 0.0
26/08:30am 15.5 11.3 8.3 62 3.7 ESE 20 28 11 15 1023.6 - 0.0
26/08:00am 14.7 10.5 8.4 66 3.2 ESE 20 26 11 14 1023.4 - 0.0
26/07:30am 14.2 10.8 9.0 71 2.7 E 17 20 9 11 1023.1 - 0.0
26/07:00am 11.9 9.5 8.6 80 1.7 E 11 15 6 8 1022.6 - 0.0
26/06:30am 10.2 7.7 8.0 86 1.1 E 11 13 6 7 1022.1 - 0.0
26/06:00am 10.2 7.3 8.0 86 1.1 E 13 15 7 8 1021.7 1021.3 0.0
26/05:30am 10.1 7.1 7.9 86 1.1 E 13 15 7 8 1021.5 - 0.0
26/05:00am 8.9 6.0 6.7 86 1.0 E 11 13 6 7 1021.5 - 0.0
26/04:30am 8.8 5.4 6.1 83 1.2 E 13 13 7 7 1021.4 - 0.0
26/04:00am 9.7 7.3 6.8 82 1.4 ENE 9 13 5 7 1021.5 - 0.0
26/03:30am 9.7 7.3 7.1 84 1.2 ENE 9 11 5 6 1021.5 - 0.0
26/03:00am 9.5 7.5 7.3 86 1.0 ENE 7 11 4 6 1021.8 1021.4 0.0
26/02:30am 9.6 7.7 7.4 86 1.1 E 7 9 4 5 1021.8 - 0.0
26/02:00am 9.5 7.5 7.1 85 1.1 E 7 9 4 5 1022.0 - 0.0
26/01:30am 9.9 8.1 7.2 83 1.3 E 6 7 3 4 1022.2 - 0.0
26/01:00am 9.9 8.1 7.0 82 1.4 ESE 6 7 3 4 1022.6 - 0.0
26/12:30am 10.3 8.3 7.2 81 1.5 E 7 9 4 5 1022.9 - 0.0
26/12:00am 10.3 8.2 6.6 78 1.7 ESE 7 9 4 5 1023.2 1022.8 0.0
 
Date/Time
CDT
Temp
°C
App
Temp
°C
Dew
Point
Rel
Hum
%
Delta-T
°C
Wind Press
QNH
hPa
Press
MSL
hPa
Rain
since 9 am
mm
Dir
 
Spd
km/h
Gust
km/h
Spd
kts
Gust
kts
25/11:30pm 10.3 8.3 6.3 76 1.9 E 6 7 3 4 1023.3 - 0.0
25/11:00pm 10.8 8.8 6.4 74 2.1 ESE 6 7 3 4 1023.5 - 0.0
25/10:30pm 11.5 9.3 6.4 71 2.4 SSE 7 9 4 5 1023.8 - 0.0
25/10:00pm 12.3 9.1 7.0 70 2.6 S 13 17 7 9 1023.5 - 0.0
25/09:30pm 12.7 9.8 6.7 67 2.9 SSE 11 13 6 7 1023.4 - 0.0
25/09:00pm 13.4 10.2 7.0 65 3.1 SSE 13 17 7 9 1023.2 1022.8 0.0
25/08:30pm 14.2 9.9 7.0 62 3.5 SSE 19 22 10 12 1023.0 - 0.0
25/08:00pm 14.7 9.9 7.3 61 3.7 SE 22 28 12 15 1022.8 - 0.0
25/07:30pm 15.4 10.1 6.9 57 4.2 SE 24 32 13 17 1022.5 - 0.0
25/07:00pm 16.6 11.3 7.0 53 4.8 SSE 24 32 13 17 1022.3 - 0.0
25/06:30pm 17.1 11.1 7.2 52 5.0 SSE 28 35 15 19 1022.0 - 0.0
25/06:00pm 18.2 12.2 7.0 48 5.6 SSE 28 37 15 20 1021.8 1021.4 0.0
25/05:30pm 18.3 12.6 6.5 46 5.9 SSE 26 33 14 18 1021.7 - 0.0
25/05:00pm 18.9 13.1 6.4 44 6.3 SE 26 33 14 18 1021.5 - 0.0
25/04:30pm 19.0 12.8 6.1 43 6.4 SSE 28 37 15 20 1021.8 - 0.0
25/04:00pm 19.4 13.7 6.8 44 6.4 ESE 26 35 14 19 1021.8 - 0.0
25/03:30pm 20.4 15.4 6.4 40 7.1 SSE 22 35 12 19 1021.9 - 0.0
25/03:00pm 19.7 14.2 6.1 41 6.8 SE 24 33 13 18 1022.2 1021.8 0.0
25/02:30pm 20.2 15.6 5.8 39 7.2 ESE 19 32 10 17 1022.3 - 0.0
25/02:00pm 20.5 16.1 6.4 40 7.2 ESE 19 43 10 23 1022.2 - 0.0
25/01:30pm 21.2 15.6 5.5 36 7.9 SSE 24 30 13 16 1022.5 - 0.0
25/01:00pm 20.1 15.8 5.4 38 7.3 SE 17 32 9 17 1022.5 - 0.0
25/12:30pm 18.6 14.0 5.8 43 6.3 S 19 32 10 17 1023.0 - 0.0
25/12:00pm 18.6 14.1 6.1 44 6.2 S 19 30 10 16 1023.2 1022.8 0.0
25/11:30am 17.3 13.5 5.9 47 5.6 SSW 15 26 8 14 1023.4 - 0.0
25/11:00am 18.7 14.8 5.2 41 6.6 SE 15 24 8 13 1023.4 - 0.0
25/10:30am 17.9 14.1 5.8 45 6.0 S 15 22 8 12 1023.6 - 0.0
25/10:00am 17.6 14.1 7.1 50 5.3 S 15 20 8 11 1023.9 - 0.0
25/09:30am 16.1 13.3 7.1 55 4.5 SW 11 15 6 8 1024.0 - 0.0
25/09:00am 15.3 12.2 7.1 58 4.1 SW 13 20 7 11 1023.9 1023.6 0.0
25/08:30am 14.5 11.0 7.3 62 3.6 WSW 15 19 8 10 1023.6 - 0.0
25/08:00am 13.6 9.7 7.2 65 3.1 WSW 17 20 9 11 1023.3 - 0.0
25/07:30am 12.6 9.0 6.6 67 2.9 WSW 15 20 8 11 1023.1 - 0.0
25/07:00am 11.5 9.0 6.4 71 2.4 WNW 9 13 5 7 1022.8 - 0.0
25/06:30am 10.4 7.4 6.2 75 2.0 W 11 15 6 8 1022.5 - 0.0
25/06:00am 9.8 6.4 6.0 77 1.8 W 13 17 7 9 1022.1 1021.7 0.0
25/05:30am 9.9 6.5 5.9 76 1.9 W 13 15 7 8 1021.7 - 0.0
25/05:00am 10.2 6.8 6.0 75 2.0 W 13 15 7 8 1021.6 - 0.0
25/04:30am 10.6 6.9 6.2 74 2.1 W 15 19 8 10 1021.5 - 0.0
25/04:00am 10.8 7.1 6.2 73 2.2 W 15 19 8 10 1021.3 - 0.0
25/03:30am 10.6 6.8 6.0 73 2.2 W 15 17 8 9 1021.3 - 0.0
25/03:00am 10.3 6.5 5.9 74 2.0 W 15 17 8 9 1021.2 1020.8 0.0
25/02:30am 10.7 7.4 6.3 74 2.1 W 13 17 7 9 1021.3 - 0.0
25/02:00am 10.8 7.4 6.0 72 2.3 W 13 17 7 9 1021.4 - 0.0
25/01:30am 10.6 7.1 5.6 71 2.3 W 13 17 7 9 1021.4 - 0.0
25/01:00am 10.6 7.0 5.2 69 2.5 W 13 15 7 8 1021.3 - 0.0
25/12:30am 10.8 6.8 4.9 67 2.7 W 15 17 8 9 1021.3 - 0.0
25/12:00am 10.8 7.1 4.7 66 2.8 W 13 15 7 8 1021.2 1020.8 0.0
 
Date/Time
CDT
Temp
°C
App
Temp
°C
Dew
Point
Rel
Hum
%
Delta-T
°C
Wind Press
QNH
hPa
Press
MSL
hPa
Rain
since 9 am
mm
Dir
 
Spd
km/h
Gust
km/h
Spd
kts
Gust
kts
24/11:30pm 10.7 7.1 4.8 67 2.7 WSW 13 13 7 7 1021.2 - 0.0
24/11:00pm 11.2 7.2 4.7 64 3.0 SW 15 17 8 9 1021.2 - 0.0
24/10:30pm 12.5 7.8 5.0 60 3.5 SSW 19 24 10 13 1021.0 - 0.0
24/10:00pm 13.2 8.0 5.4 59 3.7 SSW 22 26 12 14 1020.6 - 0.0
24/09:30pm 13.5 8.5 6.4 62 3.4 S 22 28 12 15 1020.2 - 0.0
24/09:00pm 14.1 9.1 6.5 60 3.7 S 22 28 12 15 1019.8 1019.4 0.0
24/08:30pm 14.7 8.2 6.5 58 4.0 S 30 37 16 20 1019.3 - 0.0
24/08:00pm 15.3 8.5 6.8 57 4.2 S 32 44 17 24 1018.8 - 0.0
24/07:30pm 16.0 8.8 7.7 58 4.2 S 35 43 19 23 1018.2 - 0.0
24/07:00pm 17.0 9.5 7.9 55 4.6 S 37 46 20 25 1017.7 - 0.0
24/06:30pm 17.9 11.1 7.6 51 5.3 SSE 33 46 18 25 1017.2 - 0.0
24/06:00pm 18.0 10.5 6.5 47 5.7 S 35 50 19 27 1017.2 1016.8 0.0
24/05:30pm 19.0 11.9 6.5 44 6.3 S 33 43 18 23 1017.0 - 0.0
24/05:00pm 18.9 11.2 5.4 41 6.6 S 35 46 19 25 1016.8 - 0.0
24/04:30pm 19.2 12.2 6.0 42 6.6 S 32 44 17 24 1016.5 - 0.0
24/04:00pm 19.2 12.4 7.0 45 6.2 S 32 46 17 25 1016.6 - 0.0
24/03:30pm 19.4 13.2 6.2 42 6.6 S 28 41 15 22 1016.6 - 0.0
24/03:00pm 20.4 13.7 7.4 43 6.7 S 32 46 17 25 1016.3 1015.9 0.0
24/02:30pm 20.9 14.5 8.5 45 6.6 S 32 46 17 25 1016.1 - 0.0
24/02:00pm 20.2 14.3 7.6 44 6.5 S 28 41 15 22 1016.0 - 0.0
24/01:30pm 21.0 15.7 6.9 40 7.2 SSW 24 35 13 19 1016.1 - 0.0
24/01:17pm 20.4 14.3 8.4 46 6.3 S 30 48 16 26 1015.8 - 0.0
24/01:00pm 21.2 15.6 8.8 45 6.6 SSW 28 41 15 22 1015.9 - 0.0
24/12:30pm 19.8 13.4 9.4 51 5.6 S 33 44 18 24 1016.0 - 0.0
24/12:00pm 19.5 14.2 9.7 53 5.3 S 28 41 15 22 1015.7 1015.3 0.0
24/11:30am 19.7 14.9 10.4 55 5.1 SSE 26 35 14 19 1015.5 - 0.0
24/11:00am 19.9 14.6 10.0 53 5.4 SW 28 43 15 23 1015.4 - 0.0

Other Formats:

Comma delimited format used in spreadsheet applications
http://www.bom.gov.au/fwo/IDS60801/IDS60801.94662.axf

JavaScript Object Notation format (JSON) in row-major order
http://www.bom.gov.au/fwo/IDS60801/IDS60801.94662.json